Time;durP1;ratioP1;P1;durP2;ratioP2;P2;SDS_P1;SDS_P2;PMS_P1;PMS_P2;Temp;Humidity;BMP_temperature;BMP_pressure;BME280_temperature;BME280_humidity;BME280_pressure;Samples;Min_cycle;Max_cycle;Signal;HPM_P1;HPM_P2
2021/08/16 04:30:48;;;;;;;10.53;9.30;;;19.90;99.90;;;;;;6041369;23;21147;-81
2021/08/16 04:33:14;;;;;;;11.50;9.60;;;19.90;99.90;;;;;;4937753;29;20891;-83
2021/08/16 04:35:40;;;;;;;14.10;9.30;;;20.00;99.90;;;;;;4937040;29;20491;-82
2021/08/16 04:38:05;;;;;;;14.93;10.27;;;20.00;99.90;;;;;;4938618;29;20188;-83
2021/08/16 04:40:31;;;;;;;11.17;9.53;;;20.00;99.90;;;;;;4939878;29;20416;-83
2021/08/16 04:42:57;;;;;;;15.70;10.23;;;20.00;99.90;;;;;;4938686;29;20184;-83
2021/08/16 04:45:22;;;;;;;10.50;9.60;;;20.00;99.90;;;;;;4938761;29;21017;-82
2021/08/16 04:47:48;;;;;;;17.37;9.83;;;20.00;99.90;;;;;;4938127;29;20232;-82
2021/08/16 04:50:15;;;;;;;14.90;9.10;;;20.00;99.90;;;;;;4938454;29;20260;-82
2021/08/16 04:52:41;;;;;;;11.23;8.97;;;20.00;99.90;;;;;;4938791;29;20200;-82
2021/08/16 04:55:07;;;;;;;12.80;8.37;;;20.10;99.90;;;;;;4937993;29;20417;-82
2021/08/16 04:57:38;;;;;;;11.83;8.63;;;20.10;99.90;;;;;;4937390;29;20416;-82
2021/08/16 05:00:06;;;;;;;11.57;7.40;;;20.10;99.90;;;;;;4937534;29;20457;-82
2021/08/16 05:02:31;;;;;;;10.23;8.83;;;20.10;99.90;;;;;;4937015;29;20512;-82
2021/08/16 05:05:08;;;;;;;11.97;9.10;;;20.10;99.90;;;;;;4937944;29;20860;-82
2021/08/16 05:07:33;;;;;;;8.10;7.40;;;20.10;99.90;;;;;;4937832;29;20177;-83
2021/08/16 05:09:59;;;;;;;9.60;8.60;;;20.20;99.90;;;;;;4937385;29;21058;-83
2021/08/16 05:12:24;;;;;;;10.33;7.30;;;20.20;99.90;;;;;;4937706;29;20198;-82
2021/08/16 05:14:52;;;;;;;9.37;7.27;;;20.30;99.90;;;;;;4937169;29;20181;-82
2021/08/16 05:17:18;;;;;;;13.83;7.37;;;20.30;99.90;;;;;;4936828;29;20182;-82
2021/08/16 05:19:43;;;;;;;11.80;8.43;;;20.40;99.90;;;;;;4935279;29;20434;-83
2021/08/16 05:22:09;;;;;;;9.73;7.17;;;20.40;99.90;;;;;;4936380;29;20234;-82
2021/08/16 05:24:35;;;;;;;15.70;7.10;;;20.50;99.90;;;;;;4936331;29;20602;-83
2021/08/16 05:27:01;;;;;;;12.30;7.93;;;20.60;99.90;;;;;;4937064;29;20185;-82
2021/08/16 05:29:27;;;;;;;8.70;6.20;;;20.60;99.90;;;;;;4936863;29;20926;-82
2021/08/16 05:31:53;;;;;;;11.85;7.20;;;20.60;99.90;;;;;;4902287;29;1027534;-83
2021/08/16 05:34:19;;;;;;;10.00;7.10;;;20.60;99.90;;;;;;4937767;29;20617;-82
2021/08/16 05:36:44;;;;;;;9.13;7.20;;;20.60;99.90;;;;;;4937149;29;20426;-83
2021/08/16 05:39:10;;;;;;;11.43;7.07;;;20.50;99.90;;;;;;4937804;29;20243;-83
2021/08/16 05:41:35;;;;;;;14.80;7.37;;;20.50;99.90;;;;;;4937313;29;20205;-82
2021/08/16 05:44:01;;;;;;;9.97;7.23;;;20.60;99.90;;;;;;4936556;29;20655;-82
2021/08/16 05:46:26;;;;;;;9.70;8.43;;;20.50;99.90;;;;;;4936828;29;20205;-82
2021/08/16 05:48:52;;;;;;;7.30;6.20;;;20.50;99.90;;;;;;4937548;29;20181;-82
2021/08/16 05:51:18;;;;;;;11.77;6.40;;;20.50;99.90;;;;;;4937218;29;20204;-82
2021/08/16 05:53:43;;;;;;;9.03;7.13;;;20.50;99.90;;;;;;4936318;29;20193;-82
2021/08/16 05:56:09;;;;;;;6.70;6.10;;;20.50;99.90;;;;;;4936600;29;20177;-82
2021/08/16 05:58:34;;;;;;;9.73;6.07;;;20.70;99.90;;;;;;4937137;29;20188;-82
2021/08/16 06:01:00;;;;;;;9.50;6.10;;;20.80;99.90;;;;;;4936399;29;20202;-83
2021/08/16 06:03:25;;;;;;;10.03;5.70;;;20.90;99.90;;;;;;4936331;29;20181;-82
2021/08/16 06:05:51;;;;;;;14.33;5.37;;;21.00;99.90;;;;;;4936225;29;20213;-82
2021/08/16 06:08:16;;;;;;;11.07;5.53;;;21.00;99.90;;;;;;4936277;29;20177;-83
2021/08/16 06:10:42;;;;;;;9.93;4.83;;;21.20;99.90;;;;;;4936004;29;20177;-82
2021/08/16 06:13:07;;;;;;;6.30;4.73;;;21.30;99.90;;;;;;4936205;29;20170;-82
2021/08/16 06:15:33;;;;;;;5.27;4.70;;;21.40;99.90;;;;;;4936239;29;20236;-82
2021/08/16 06:17:59;;;;;;;5.83;4.50;;;21.70;99.90;;;;;;4935920;29;20181;-81
2021/08/16 06:20:24;;;;;;;7.70;4.37;;;21.90;99.90;;;;;;4936473;29;20185;-81
2021/08/16 06:22:50;;;;;;;6.10;4.53;;;22.30;99.90;;;;;;4936241;29;20201;-82
2021/08/16 06:25:15;;;;;;;9.63;4.83;;;22.60;99.90;;;;;;4936234;29;20288;-82
2021/08/16 06:27:41;;;;;;;10.00;4.77;;;22.90;99.90;;;;;;4936165;29;20659;-82
2021/08/16 06:30:07;;;;;;;9.17;5.03;;;23.20;99.90;;;;;;4936449;29;20173;-82
2021/08/16 06:32:34;;;;;;;14.23;4.60;;;23.40;99.90;;;;;;4935764;29;20649;-82
2021/08/16 06:35:00;;;;;;;7.07;4.67;;;23.50;99.90;;;;;;4936228;29;20417;-82
2021/08/16 06:37:26;;;;;;;7.53;4.57;;;23.60;99.90;;;;;;4936195;29;20468;-82
2021/08/16 06:39:52;;;;;;;6.07;4.40;;;23.60;99.90;;;;;;4938201;29;20830;-80
2021/08/16 06:42:19;;;;;;;10.30;5.00;;;23.70;99.90;;;;;;4938299;29;20194;-80
2021/08/16 06:44:44;;;;;;;7.90;4.00;;;23.90;99.90;;;;;;4936233;29;20685;-81
2021/08/16 06:47:10;;;;;;;7.67;3.90;;;24.00;99.90;;;;;;4936479;29;20429;-80
2021/08/16 06:49:36;;;;;;;5.90;4.00;;;23.90;99.90;;;;;;4937719;29;20425;-80
2021/08/16 06:52:01;;;;;;;6.13;3.20;;;24.00;99.90;;;;;;4937638;29;20703;-80
2021/08/16 06:54:27;;;;;;;9.83;5.00;;;24.00;99.90;;;;;;4937553;29;20935;-81
2021/08/16 06:56:52;;;;;;;12.63;4.57;;;24.20;99.90;;;;;;4938313;29;20185;-80
2021/08/16 06:59:18;;;;;;;5.93;4.00;;;24.00;99.90;;;;;;4942387;29;20182;-80
2021/08/16 07:01:44;;;;;;;7.40;3.60;;;24.10;99.90;;;;;;4939137;29;20203;-79
2021/08/16 07:04:10;;;;;;;5.73;4.40;;;23.90;99.90;;;;;;4940320;29;20181;-80
2021/08/16 07:06:35;;;;;;;3.67;3.37;;;24.30;99.90;;;;;;4939403;29;20205;-80
2021/08/16 07:09:01;;;;;;;8.00;3.77;;;24.20;99.90;;;;;;4939588;29;20546;-80
2021/08/16 07:11:26;;;;;;;7.10;3.57;;;24.40;99.90;;;;;;4938542;29;20280;-80
2021/08/16 07:13:52;;;;;;;9.13;3.97;;;24.60;99.90;;;;;;4939199;29;20196;-80
2021/08/16 07:16:18;;;;;;;13.00;3.93;;;25.00;99.90;;;;;;4938346;29;20220;-80
2021/08/16 07:18:44;;;;;;;6.20;2.90;;;25.10;99.90;;;;;;4938615;29;20178;-80
2021/08/16 07:21:09;;;;;;;7.77;3.50;;;24.80;99.90;;;;;;4938511;29;20508;-80
2021/08/16 07:23:37;;;;;;;4.03;3.60;;;24.50;99.90;;;;;;4938402;29;20190;-80
2021/08/16 07:26:02;;;;;;;5.23;3.60;;;24.20;99.90;;;;;;4937574;29;20232;-80
2021/08/16 07:28:29;;;;;;;5.33;3.90;;;24.10;99.90;;;;;;4937425;29;20421;-80
2021/08/16 07:30:57;;;;;;;4.73;3.10;;;24.30;99.90;;;;;;4937010;29;20638;-79
2021/08/16 07:33:22;;;;;;;7.00;3.40;;;24.50;99.90;;;;;;4938480;29;20418;-80
2021/08/16 07:35:48;;;;;;;5.50;3.60;;;24.50;99.90;;;;;;4937975;29;20453;-81
2021/08/16 07:38:14;;;;;;;6.10;3.43;;;24.20;99.90;;;;;;4937708;29;20189;-80
2021/08/16 07:40:39;;;;;;;6.40;3.03;;;24.00;99.90;;;;;;4937252;29;20181;-80
2021/08/16 07:43:05;;;;;;;7.93;4.00;;;23.80;99.90;;;;;;4937004;29;20185;-80
2021/08/16 07:45:30;;;;;;;7.53;3.60;;;23.30;99.90;;;;;;4937270;29;20564;-80
2021/08/16 07:47:56;;;;;;;6.70;4.23;;;23.30;99.90;;;;;;4936723;29;20712;-80
2021/08/16 07:50:22;;;;;;;4.80;3.53;;;23.10;99.90;;;;;;4937067;29;20188;-81
2021/08/16 07:52:48;;;;;;;3.97;3.13;;;22.80;99.90;;;;;;4939235;29;20200;-82
2021/08/16 07:55:13;;;;;;;3.30;3.00;;;22.70;99.90;;;;;;4937693;29;20417;-82
2021/08/16 07:57:39;;;;;;;4.83;3.30;;;22.60;99.90;;;;;;4935905;29;20554;-81
2021/08/16 08:00:06;;;;;;;7.10;3.40;;;22.80;99.90;;;;;;4937056;29;20192;-82
2021/08/16 08:03:01;;;;;;;5.73;2.90;;;22.80;99.90;;;;;;4936948;29;20741;-82
2021/08/16 08:05:27;;;;;;;5.00;3.97;;;23.00;99.90;;;;;;4928437;29;20473;-82
2021/08/16 08:07:52;;;;;;;5.50;3.23;;;23.20;99.90;;;;;;4936463;29;20503;-83
2021/08/16 08:10:20;;;;;;;3.43;3.13;;;22.90;99.90;;;;;;4937239;29;20178;-81
2021/08/16 08:12:46;;;;;;;5.73;3.27;;;22.70;99.90;;;;;;4937000;29;20198;-82
2021/08/16 08:15:13;;;;;;;6.63;4.90;;;22.60;99.90;;;;;;4938660;29;20799;-82
2021/08/16 08:17:38;;;;;;;4.00;3.40;;;22.50;99.90;;;;;;4938966;29;20429;-82
2021/08/16 08:20:06;;;;;;;12.33;3.83;;;22.50;99.90;;;;;;4937514;29;20421;-82
2021/08/16 08:22:32;;;;;;;5.37;3.00;;;22.60;99.90;;;;;;4937545;29;20209;-83
2021/08/16 08:24:57;;;;;;;5.33;3.60;;;22.90;99.90;;;;;;4937311;29;20974;-82
2021/08/16 08:27:23;;;;;;;3.90;3.30;;;23.30;99.90;;;;;;4938488;29;20421;-83
2021/08/16 08:29:49;;;;;;;6.07;3.53;;;23.50;99.90;;;;;;4937257;29;20205;-82
2021/08/16 08:32:15;;;;;;;6.03;3.53;;;23.90;99.90;;;;;;4937632;29;20210;-82
2021/08/16 08:34:41;;;;;;;7.10;3.60;;;24.00;99.90;;;;;;4937387;29;20182;-82
2021/08/16 08:37:10;;;;;;;4.70;3.53;;;23.80;99.90;;;;;;4939094;29;20421;-81
2021/08/16 08:39:39;;;;;;;5.07;3.37;;;23.60;99.90;;;;;;4940879;29;20188;-80
2021/08/16 08:42:06;;;;;;;10.83;4.00;;;23.20;99.90;;;;;;4939724;29;20535;-80
2021/08/16 08:44:32;;;;;;;6.20;3.17;;;23.00;99.90;;;;;;4940252;29;20492;-79
2021/08/16 08:46:59;;;;;;;4.63;3.23;;;22.60;99.90;;;;;;4939471;29;20500;-80
2021/08/16 08:49:24;;;;;;;5.57;3.80;;;22.40;99.90;;;;;;4939096;29;20862;-80
2021/08/16 08:51:50;;;;;;;5.83;3.57;;;22.30;99.90;;;;;;4939275;29;20524;-79
2021/08/16 08:54:19;;;;;;;9.53;3.57;;;22.30;99.90;;;;;;4939246;29;20295;-79
2021/08/16 08:56:45;;;;;;;5.33;3.50;;;22.40;99.90;;;;;;4939452;29;20427;-79
2021/08/16 08:59:11;;;;;;;5.57;3.17;;;22.50;99.90;;;;;;4939806;29;20907;-80
2021/08/16 09:01:37;;;;;;;7.73;4.17;;;22.70;99.90;;;;;;4939475;29;20452;-79
2021/08/16 09:04:03;;;;;;;7.87;4.40;;;23.00;99.90;;;;;;4939464;29;20417;-79
2021/08/16 09:06:41;;;;;;;7.50;4.23;;;23.10;99.90;;;;;;4939223;29;20465;-80
2021/08/16 09:09:07;;;;;;;7.43;4.10;;;23.20;99.90;;;;;;4939363;29;20525;-79
2021/08/16 09:11:33;;;;;;;5.47;4.00;;;23.10;99.90;;;;;;4939003;29;20468;-80
2021/08/16 09:14:00;;;;;;;7.70;4.57;;;22.90;99.90;;;;;;4939116;29;20520;-81
2021/08/16 09:16:29;;;;;;;4.93;4.00;;;22.80;99.90;;;;;;4937703;29;20185;-82
2021/08/16 09:18:55;;;;;;;9.70;4.10;;;22.70;99.90;;;;;;4940459;29;20501;-82
2021/08/16 09:21:38;;;;;;;5.63;4.20;;;22.90;99.90;;;;;;4939596;29;20444;-81
2021/08/16 09:24:04;;;;;;;8.17;4.10;;;22.80;99.90;;;;;;4939151;29;20421;-81
2021/08/16 09:26:33;;;;;;;7.20;3.90;;;23.10;99.90;;;;;;4939731;29;21162;-80
2021/08/16 09:29:13;;;;;;;11.90;4.77;;;23.70;99.90;;;;;;4939134;29;21006;-82
2021/08/16 09:31:50;;;;;;;6.63;4.97;;;24.40;99.90;;;;;;4938803;29;20834;-81
2021/08/16 09:34:36;;;;;;;6.07;4.00;;;24.70;99.90;;;;;;4939939;29;20495;-82
2021/08/16 09:37:13;;;;;;;6.57;3.60;;;25.00;99.90;;;;;;4938884;29;20448;-82
2021/08/16 09:39:39;;;;;;;6.97;3.60;;;25.00;99.90;;;;;;4939025;29;20508;-82
2021/08/16 09:42:04;;;;;;;6.53;3.53;;;25.20;99.90;;;;;;4938960;29;20445;-81
2021/08/16 09:44:31;;;;;;;6.30;3.60;;;25.10;99.90;;;;;;4939754;29;20188;-81
2021/08/16 09:47:04;;;;;;;4.80;3.60;;;24.80;99.90;;;;;;4940525;29;20213;-82
2021/08/16 09:49:29;;;;;;;6.43;3.90;;;24.80;99.90;;;;;;4939210;29;20429;-81
2021/08/16 09:52:08;;;;;;;8.83;3.90;;;24.60;99.90;;;;;;4940195;29;20532;-82
2021/08/16 09:54:34;;;;;;;7.63;3.60;;;24.30;99.90;;;;;;4939728;29;20247;-82
2021/08/16 09:57:01;;;;;;;4.60;3.60;;;24.10;99.90;;;;;;4939264;29;20484;-81
2021/08/16 09:59:28;;;;;;;4.33;3.10;;;24.00;99.90;;;;;;4938244;29;20439;-81
2021/08/16 10:01:54;;;;;;;5.97;3.10;;;24.30;99.90;;;;;;4938585;29;20468;-81
2021/08/16 10:04:20;;;;;;;8.90;2.87;;;24.60;99.90;;;;;;4938987;29;20974;-81
2021/08/16 10:06:46;;;;;;;4.93;2.90;;;24.90;99.90;;;;;;4939884;29;20500;-81
2021/08/16 10:09:14;;;;;;;4.60;3.40;;;25.60;99.90;;;;;;4939821;29;20601;-82
2021/08/16 10:11:41;;;;;;;5.53;3.30;;;26.10;99.90;;;;;;4940843;29;20515;-83
2021/08/16 10:14:06;;;;;;;5.40;4.07;;;25.70;99.90;;;;;;4943333;29;20410;-82
2021/08/16 10:16:42;;;;;;;8.63;3.10;;;25.50;99.90;;;;;;4944309;29;20414;-81
2021/08/16 10:19:17;;;;;;;5.73;3.30;;;25.40;99.90;;;;;;4947476;29;20561;-81
2021/08/16 10:21:44;;;;;;;5.27;2.90;;;25.90;99.90;;;;;;4946454;29;20819;-83
2021/08/16 10:24:18;;;;;;;9.13;3.37;;;25.80;99.90;;;;;;4940231;29;20425;-82
2021/08/16 10:26:55;;;;;;;5.03;3.20;;;25.30;99.90;;;;;;4939174;29;20471;-83
2021/08/16 10:29:22;;;;;;;6.63;3.20;;;24.90;99.90;;;;;;4938274;29;20421;-82
2021/08/16 10:31:53;;;;;;;8.03;4.50;;;24.40;99.90;;;;;;4940176;29;20480;-82
2021/08/16 10:34:28;;;;;;;7.10;4.30;;;23.90;99.90;;;;;;4940429;29;20922;-82
2021/08/16 10:37:00;;;;;;;6.30;3.57;;;23.40;99.90;;;;;;4940409;29;20421;-81
2021/08/16 10:39:37;;;;;;;11.00;3.43;;;23.10;99.90;;;;;;4941410;29;20418;-82
2021/08/16 10:42:13;;;;;;;3.53;2.73;;;23.00;99.90;;;;;;4944236;29;20453;-82
2021/08/16 10:44:47;;;;;;;8.97;3.77;;;23.00;99.90;;;;;;4944758;29;20516;-81
2021/08/16 10:47:30;;;;;;;4.50;3.27;;;23.10;99.90;;;;;;4945377;29;20803;-82
2021/08/16 10:50:18;;;;;;;6.10;3.53;;;23.10;99.90;;;;;;4945768;29;20424;-82
2021/08/16 10:52:44;;;;;;;6.60;3.57;;;22.80;99.90;;;;;;4947182;29;20441;-82
2021/08/16 10:55:13;;;;;;;7.97;3.77;;;22.60;99.90;;;;;;4946136;29;20466;-82
2021/08/16 10:57:40;;;;;;;4.70;3.10;;;22.60;99.90;;;;;;4943470;29;20417;-82
2021/08/16 11:00:07;;;;;;;6.00;3.33;;;22.50;99.90;;;;;;4943302;29;20413;-81
2021/08/16 11:02:33;;;;;;;6.93;2.90;;;22.50;99.90;;;;;;4944326;29;20429;-82
2021/08/16 11:04:59;;;;;;;5.00;2.90;;;22.50;99.90;;;;;;4942539;29;20416;-82
2021/08/16 11:07:25;;;;;;;5.67;2.83;;;22.70;99.90;;;;;;4939785;29;20178;-82
2021/08/16 11:10:04;;;;;;;7.27;3.00;;;22.70;99.90;;;;;;4936368;29;20922;-82
2021/08/16 11:12:32;;;;;;;5.70;2.73;;;22.70;99.90;;;;;;4934366;29;20444;-82
2021/08/16 11:14:58;;;;;;;7.00;3.27;;;23.30;99.90;;;;;;4935635;29;20428;-82
2021/08/16 11:17:30;;;;;;;5.73;2.70;;;24.10;99.90;;;;;;4935483;29;20409;-81
2021/08/16 11:20:03;;;;;;;7.17;3.43;;;24.60;99.90;;;;;;4935517;29;20933;-81
2021/08/16 11:22:29;;;;;;;5.53;2.70;;;25.10;99.90;;;;;;4936034;29;20437;-81
2021/08/16 11:24:55;;;;;;;7.00;2.73;;;25.30;99.90;;;;;;4935619;29;20776;-82
2021/08/16 11:27:23;;;;;;;5.47;2.97;;;25.30;99.90;;;;;;4935773;29;20500;-82
2021/08/16 11:30:05;;;;;;;4.80;3.27;;;24.80;99.90;;;;;;4935956;29;20843;-82
2021/08/16 11:32:32;;;;;;;5.60;3.27;;;24.40;99.90;;;;;;4935867;29;20531;-81
2021/08/16 11:34:59;;;;;;;9.50;4.03;;;24.00;99.90;;;;;;4935746;29;20429;-82
2021/08/16 11:37:34;;;;;;;2.67;2.40;;;23.70;99.90;;;;;;4935935;29;20413;-82
2021/08/16 11:40:01;;;;;;;3.80;2.77;;;23.60;99.90;;;;;;4935858;29;20472;-82
2021/08/16 11:42:27;;;;;;;5.37;2.60;;;23.70;99.90;;;;;;4935347;29;20441;-81
2021/08/16 11:45:03;;;;;;;8.10;3.17;;;24.00;99.90;;;;;;4935744;29;20492;-81
2021/08/16 11:47:29;;;;;;;6.50;3.10;;;24.60;99.90;;;;;;4935204;29;20413;-81
2021/08/16 11:50:07;;;;;;;6.83;3.10;;;25.20;99.90;;;;;;4934924;29;20445;-81
2021/08/16 11:52:33;;;;;;;3.50;2.60;;;25.50;99.90;;;;;;4933937;29;20248;-81
2021/08/16 11:54:59;;;;;;;6.27;2.80;;;25.60;99.90;;;;;;4933464;29;20436;-81
2021/08/16 11:57:26;;;;;;;5.80;3.27;;;25.60;99.90;;;;;;4934505;29;20413;-81
2021/08/16 11:59:56;;;;;;;6.23;3.00;;;25.60;99.90;;;;;;4935259;29;20475;-81
2021/08/16 12:02:24;;;;;;;3.97;2.97;;;25.50;99.90;;;;;;4935173;29;20441;-82
2021/08/16 12:04:52;;;;;;;6.60;3.00;;;25.40;99.90;;;;;;4935869;29;20420;-81
2021/08/16 12:07:22;;;;;;;3.67;3.00;;;25.20;99.90;;;;;;4935767;29;20428;-81
2021/08/16 12:09:48;;;;;;;4.23;3.23;;;25.20;99.90;;;;;;4935016;29;20477;-82
2021/08/16 12:12:18;;;;;;;4.73;2.10;;;24.90;99.90;;;;;;4936741;29;20797;-82
2021/08/16 12:14:44;;;;;;;6.00;2.97;;;24.70;99.90;;;;;;4938366;29;20480;-82
2021/08/16 12:17:09;;;;;;;4.13;2.43;;;24.50;99.90;;;;;;4937173;29;20841;-82
2021/08/16 12:19:35;;;;;;;7.90;4.57;;;24.50;99.90;;;;;;4938181;29;20583;-82
2021/08/16 12:22:11;;;;;;;4.30;3.60;;;24.40;99.90;;;;;;4939952;29;20757;-83
2021/08/16 12:24:39;;;;;;;10.70;3.20;;;24.50;99.90;;;;;;4939067;29;20434;-81
2021/08/16 12:27:07;;;;;;;5.00;3.40;;;25.00;99.90;;;;;;4938580;29;20471;-81
2021/08/16 12:29:44;;;;;;;3.80;3.00;;;25.20;99.90;;;;;;4938506;29;20922;-80
2021/08/16 12:32:27;;;;;;;3.90;2.50;;;24.80;99.90;;;;;;4938016;29;20508;-81
2021/08/16 12:34:53;;;;;;;4.83;3.07;;;24.40;99.90;;;;;;4938769;29;20409;-80
2021/08/16 12:37:22;;;;;;;6.30;2.97;;;24.10;99.90;;;;;;4942235;29;20417;-81
2021/08/16 12:39:48;;;;;;;7.73;2.80;;;24.20;99.90;;;;;;4941238;29;20274;-81
2021/08/16 12:42:16;;;;;;;7.10;3.80;;;24.00;99.90;;;;;;4941869;29;20478;-80
2021/08/16 12:44:53;;;;;;;5.20;2.93;;;24.00;99.90;;;;;;4942219;29;20441;-81
2021/08/16 12:47:33;;;;;;;4.77;2.83;;;24.20;99.90;;;;;;4942243;29;20421;-81
2021/08/16 12:50:00;;;;;;;9.43;3.10;;;24.40;99.90;;;;;;4940838;29;20425;-81
2021/08/16 12:52:27;;;;;;;6.33;2.93;;;24.30;99.90;;;;;;4942601;29;21197;-81
2021/08/16 12:54:52;;;;;;;4.13;2.90;;;24.30;99.90;;;;;;4942018;29;20492;-80
2021/08/16 12:57:18;;;;;;;5.60;3.23;;;24.00;99.90;;;;;;4942002;29;20528;-81
2021/08/16 12:59:46;;;;;;;5.10;3.30;;;23.50;99.90;;;;;;4942336;29;20610;-80
2021/08/16 13:02:12;;;;;;;7.20;3.57;;;23.30;99.90;;;;;;4942616;29;20261;-81
2021/08/16 13:04:37;;;;;;;5.87;3.50;;;23.40;99.90;;;;;;4941974;29;20448;-80
2021/08/16 13:07:03;;;;;;;4.83;3.80;;;23.50;99.90;;;;;;4941141;29;20251;-81
2021/08/16 13:09:30;;;;;;;6.93;3.43;;;23.50;99.90;;;;;;4941162;29;20641;-81
2021/08/16 13:11:55;;;;;;;6.60;3.60;;;23.50;99.90;;;;;;4941445;29;20221;-81
2021/08/16 13:14:21;;;;;;;11.60;3.30;;;23.40;99.90;;;;;;4941057;29;20418;-81
2021/08/16 13:16:46;;;;;;;4.20;2.53;;;23.50;99.90;;;;;;4940479;29;20185;-82
2021/08/16 13:19:12;;;;;;;6.30;3.27;;;23.50;99.90;;;;;;4941578;29;20196;-81
2021/08/16 13:21:38;;;;;;;5.30;3.40;;;23.80;99.90;;;;;;4940730;29;20205;-81
2021/08/16 13:24:03;;;;;;;5.63;3.93;;;23.90;99.90;;;;;;4940266;29;20178;-80
2021/08/16 13:26:29;;;;;;;6.50;4.37;;;23.90;99.90;;;;;;4940464;29;20212;-81
2021/08/16 13:28:55;;;;;;;3.43;3.13;;;23.80;99.90;;;;;;4941060;29;20231;-81
2021/08/16 13:31:20;;;;;;;4.63;3.97;;;23.60;99.90;;;;;;4940869;29;20820;-81
2021/08/16 13:33:46;;;;;;;6.17;3.77;;;23.50;99.90;;;;;;4941893;29;20644;-81
2021/08/16 13:36:11;;;;;;;9.50;3.50;;;23.50;99.90;;;;;;4941286;29;20189;-82
2021/08/16 13:38:37;;;;;;;4.50;2.97;;;23.40;99.90;;;;;;4941125;29;20177;-81
2021/08/16 13:41:02;;;;;;;9.17;3.57;;;23.30;99.90;;;;;;4940975;29;20658;-81
2021/08/16 13:43:28;;;;;;;5.70;2.60;;;23.20;99.90;;;;;;4941490;29;20184;-82
2021/08/16 13:45:53;;;;;;;5.20;2.57;;;23.30;99.90;;;;;;4940790;29;20248;-81
2021/08/16 13:48:19;;;;;;;6.93;3.13;;;23.50;99.90;;;;;;4941380;29;20173;-81
2021/08/16 13:50:44;;;;;;;3.90;3.50;;;23.80;99.90;;;;;;4940893;29;20650;-82
2021/08/16 13:53:10;;;;;;;7.90;3.60;;;23.60;99.90;;;;;;4939658;29;20208;-82
2021/08/16 13:55:36;;;;;;;6.43;3.30;;;23.70;99.90;;;;;;4939380;29;20614;-80
2021/08/16 13:58:01;;;;;;;3.73;2.53;;;23.80;99.90;;;;;;4936988;29;20307;-80
2021/08/16 14:00:27;;;;;;;4.30;2.93;;;23.80;99.90;;;;;;4937036;29;20185;-80
2021/08/16 14:02:53;;;;;;;2.77;2.53;;;24.00;99.90;;;;;;4937085;29;20236;-80
2021/08/16 14:05:19;;;;;;;4.83;2.50;;;24.20;99.90;;;;;;4938508;29;20216;-80
2021/08/16 14:07:45;;;;;;;6.27;2.90;;;24.40;99.90;;;;;;4937999;29;20504;-80
2021/08/16 14:10:12;;;;;;;8.53;3.00;;;24.50;99.90;;;;;;4937095;29;20570;-80
2021/08/16 14:12:41;;;;;;;5.50;2.93;;;24.40;99.90;;;;;;4937730;29;20280;-80
2021/08/16 14:15:08;;;;;;;3.33;2.67;;;24.40;99.90;;;;;;4938906;29;20469;-80
2021/08/16 14:17:33;;;;;;;3.13;2.30;;;24.20;99.90;;;;;;4938168;29;20417;-80
2021/08/16 14:19:59;;;;;;;10.57;3.00;;;24.10;99.90;;;;;;4938508;29;20436;-80
2021/08/16 14:22:24;;;;;;;2.93;2.30;;;24.00;99.90;;;;;;4937955;29;20197;-80
2021/08/16 14:24:50;;;;;;;2.70;2.23;;;23.80;99.90;;;;;;4938353;29;20181;-80
2021/08/16 14:27:15;;;;;;;3.73;2.17;;;23.90;99.90;;;;;;4938063;29;20209;-80
2021/08/16 14:29:41;;;;;;;2.27;2.07;;;24.00;99.90;;;;;;4938211;29;20180;-80
2021/08/16 14:32:07;;;;;;;5.20;2.73;;;23.90;99.90;;;;;;4937961;29;20209;-78
2021/08/16 14:34:33;;;;;;;12.40;3.23;;;23.70;99.90;;;;;;4937036;29;20600;-80
2021/08/16 14:36:59;;;;;;;10.30;2.47;;;23.70;99.90;;;;;;4937434;29;20444;-80
2021/08/16 14:39:24;;;;;;;3.50;2.27;;;23.50;99.90;;;;;;4937384;29;20260;-81
2021/08/16 14:41:50;;;;;;;6.30;2.93;;;23.40;99.90;;;;;;4937684;29;20267;-80
2021/08/16 14:44:16;;;;;;;3.27;2.60;;;23.20;99.90;;;;;;4937721;29;20706;-80
2021/08/16 14:46:41;;;;;;;5.50;2.50;;;23.20;99.90;;;;;;4937350;29;20220;-80
2021/08/16 14:49:07;;;;;;;4.43;2.67;;;23.10;99.90;;;;;;4937901;29;20256;-80
2021/08/16 14:51:34;;;;;;;5.40;2.20;;;23.00;99.90;;;;;;4937965;29;20201;-80
2021/08/16 14:54:00;;;;;;;4.60;2.67;;;23.10;99.90;;;;;;4937568;29;20362;-80
2021/08/16 14:56:25;;;;;;;5.50;2.50;;;23.20;99.90;;;;;;4938496;29;20453;-80
2021/08/16 14:58:51;;;;;;;2.63;2.40;;;23.20;99.90;;;;;;4938160;29;20201;-80
2021/08/16 15:01:17;;;;;;;5.80;2.50;;;23.20;99.90;;;;;;4937591;29;20229;-80
2021/08/16 15:03:42;;;;;;;4.10;2.27;;;23.30;99.90;;;;;;4938062;29;20209;-80
2021/08/16 15:06:09;;;;;;;5.10;2.90;;;23.20;99.90;;;;;;4936750;29;20209;-80
2021/08/16 15:08:36;;;;;;;3.43;2.53;;;23.20;99.90;;;;;;4938280;29;20554;-79
2021/08/16 15:11:03;;;;;;;8.53;3.00;;;23.20;99.90;;;;;;4937640;29;20425;-80
2021/08/16 15:13:32;;;;;;;4.70;2.20;;;23.30;99.90;;;;;;4937732;29;20444;-80
2021/08/16 15:16:01;;;;;;;6.47;2.40;;;23.40;99.90;;;;;;4937411;29;20557;-80
2021/08/16 15:18:27;;;;;;;4.90;2.63;;;23.30;99.90;;;;;;4937454;29;20421;-81
2021/08/16 15:20:52;;;;;;;4.10;2.70;;;23.30;99.90;;;;;;4937654;29;20572;-80
2021/08/16 15:23:18;;;;;;;5.60;2.50;;;23.30;99.90;;;;;;4937774;29;20276;-80
2021/08/16 15:25:44;;;;;;;4.57;2.50;;;23.30;99.90;;;;;;4938001;29;20280;-80
2021/08/16 15:28:09;;;;;;;5.50;2.27;;;23.10;99.90;;;;;;4937917;29;20650;-79
2021/08/16 15:30:35;;;;;;;7.10;2.33;;;23.10;99.90;;;;;;4937836;29;20180;-81
2021/08/16 15:33:02;;;;;;;4.47;2.40;;;23.00;99.90;;;;;;4936233;29;20197;-79
2021/08/16 15:35:27;;;;;;;2.83;1.87;;;23.00;99.90;;;;;;4940948;29;20212;-82
2021/08/16 15:37:53;;;;;;;8.53;2.60;;;22.90;99.90;;;;;;4938693;29;20432;-79
2021/08/16 15:40:18;;;;;;;5.20;2.50;;;22.80;99.90;;;;;;4938230;29;20189;-79
2021/08/16 15:42:50;;;;;;;4.33;2.50;;;22.80;99.90;;;;;;4937839;29;20205;-80
2021/08/16 15:45:16;;;;;;;3.63;2.50;;;22.80;99.90;;;;;;4936254;29;20181;-80
2021/08/16 15:47:43;;;;;;;4.00;2.03;;;22.80;99.90;;;;;;4941972;29;20409;-82
2021/08/16 15:50:09;;;;;;;3.37;1.93;;;22.80;99.90;;;;;;4944225;29;20220;-83
2021/08/16 15:52:36;;;;;;;3.37;2.37;;;22.80;99.90;;;;;;4942731;29;20864;-82
2021/08/16 15:55:04;;;;;;;2.60;2.40;;;22.80;99.90;;;;;;4940801;29;20417;-80
2021/08/16 15:57:30;;;;;;;3.07;1.87;;;22.80;99.90;;;;;;4941037;29;21162;-80
2021/08/16 15:59:55;;;;;;;4.20;2.53;;;22.80;99.90;;;;;;4940901;29;20417;-79
2021/08/16 16:02:21;;;;;;;2.33;1.93;;;22.60;99.90;;;;;;4940903;29;20401;-83
2021/08/16 16:04:47;;;;;;;4.37;2.33;;;22.50;99.90;;;;;;4941463;29;20181;-82
2021/08/16 16:07:13;;;;;;;4.00;2.57;;;22.50;99.90;;;;;;4942114;29;20220;-81
2021/08/16 16:09:39;;;;;;;2.57;2.10;;;22.50;99.90;;;;;;4941783;29;20421;-82
2021/08/16 16:12:04;;;;;;;3.57;1.87;;;22.40;99.90;;;;;;4940875;29;20201;-82
2021/08/16 16:14:36;;;;;;;9.00;2.30;;;22.30;99.90;;;;;;4942103;29;20197;-82
2021/08/16 16:17:02;;;;;;;3.43;2.10;;;22.10;99.90;;;;;;4940410;29;20204;-82
2021/08/16 16:19:28;;;;;;;1.87;1.77;;;22.00;99.90;;;;;;4941032;29;20448;-82
2021/08/16 16:21:53;;;;;;;2.30;1.60;;;22.00;99.90;;;;;;4940946;29;20445;-82
2021/08/16 16:24:20;;;;;;;3.70;2.60;;;22.00;99.90;;;;;;4940603;29;20192;-82
2021/08/16 16:26:46;;;;;;;3.60;2.10;;;21.90;99.90;;;;;;4941242;29;20205;-82
2021/08/16 16:29:11;;;;;;;3.00;1.77;;;21.90;99.90;;;;;;4939769;29;20420;-81
2021/08/16 16:31:37;;;;;;;3.40;2.43;;;21.80;99.90;;;;;;4939256;29;20221;-81
2021/08/16 16:34:03;;;;;;;5.30;1.97;;;21.70;99.90;;;;;;4939582;29;20184;-81
2021/08/16 16:36:29;;;;;;;2.23;1.60;;;21.70;99.90;;;;;;4943516;29;20249;-81
2021/08/16 16:38:55;;;;;;;4.10;1.73;;;21.70;99.90;;;;;;4947019;29;20464;-81
2021/08/16 16:41:21;;;;;;;3.40;2.00;;;21.70;99.90;;;;;;4953648;29;20231;-81
2021/08/16 16:43:47;;;;;;;2.50;1.83;;;21.70;99.90;;;;;;4943158;29;20497;-81
2021/08/16 16:46:16;;;;;;;4.50;2.07;;;21.60;99.90;;;;;;4943342;29;20464;-82
2021/08/16 16:48:42;;;;;;;2.50;2.10;;;21.50;99.90;;;;;;4943566;29;20209;-81
2021/08/16 16:51:07;;;;;;;5.30;2.17;;;21.40;99.90;;;;;;4943637;29;20458;-81
2021/08/16 16:53:34;;;;;;;2.40;1.53;;;21.30;99.90;;;;;;4943252;29;20421;-82
2021/08/16 16:56:00;;;;;;;6.73;1.67;;;21.30;99.90;;;;;;4940006;29;20192;-81
2021/08/16 16:58:27;;;;;;;1.40;1.20;;;21.30;99.90;;;;;;4939063;29;20525;-81
2021/08/16 17:00:52;;;;;;;2.73;2.20;;;21.10;99.90;;;;;;4939564;29;20524;-81
2021/08/16 17:03:18;;;;;;;3.20;1.57;;;21.00;99.90;;;;;;4939431;29;20832;-81
2021/08/16 17:05:43;;;;;;;2.20;1.30;;;21.00;99.90;;;;;;4939351;29;20235;-82
2021/08/16 17:08:09;;;;;;;1.77;1.27;;;20.90;99.90;;;;;;4939807;29;20568;-81
2021/08/16 17:10:34;;;;;;;4.10;1.47;;;20.90;99.90;;;;;;4939998;29;20177;-81
2021/08/16 17:13:01;;;;;;;4.20;1.57;;;20.80;99.90;;;;;;4939055;29;20175;-82
2021/08/16 17:15:26;;;;;;;3.20;1.20;;;20.80;99.90;;;;;;4939364;29;20178;-81